Time,TemperatureF,DewpointF,PressureIn,WindDirection,WindDirectionDegrees,WindSpeedMPH,WindSpeedGustMPH,Humidity,HourlyPrecipIn,Conditions,Clouds,dailyrainin,SolarRadiationWatts/m^2,SoftwareType,DateUTC
2013-01-13 00:02:00,15.0,12.0,30.04,North,359,0.0,1.0,90,-99.99,,,-99.99,0.000000,,2013-01-13 08:02:00,
2013-01-13 00:11:00,14.0,12.0,30.04,North,11,0.0,1.0,90,-99.99,,,-99.99,0.000000,,2013-01-13 08:11:00,
2013-01-13 00:22:00,14.0,12.0,30.04,NNE,26,0.0,1.0,90,-99.99,,,-99.99,0.000000,,2013-01-13 08:22:00,
2013-01-13 00:32:00,14.0,12.0,30.04,NNW,331,0.0,0.0,90,-99.99,,,-99.99,0.000000,,2013-01-13 08:32:00,
2013-01-13 00:42:00,14.0,12.0,30.04,NNE,17,0.0,1.0,91,-99.99,,,-99.99,0.000000,,2013-01-13 08:42:00,
2013-01-13 00:50:00,13.0,11.0,30.04,North,352,0.0,1.0,90,-99.99,,,-99.99,0.000000,,2013-01-13 08:50:00,
2013-01-13 00:52:00,13.0,11.0,30.04,North,358,0.0,1.0,90,-99.99,,,-99.99,0.000000,,2013-01-13 08:52:00,
2013-01-13 01:02:00,13.0,11.0,30.04,North,358,0.0,1.0,90,-99.99,,,-99.99,0.000000,,2013-01-13 09:02:00,
2013-01-13 01:11:00,13.0,11.0,30.04,North,353,0.0,0.0,89,-99.99,,,-99.99,0.000000,,2013-01-13 09:11:00,
2013-01-13 01:22:00,13.0,11.0,30.04,North,352,0.0,1.0,90,-99.99,,,-99.99,0.000000,,2013-01-13 09:22:00,
2013-01-13 01:32:00,13.0,11.0,30.04,North,352,0.0,1.0,90,-99.99,,,-99.99,0.000000,,2013-01-13 09:32:00,
2013-01-13 01:42:00,13.0,11.0,30.04,North,352,0.0,1.0,90,-99.99,,,-99.99,0.000000,,2013-01-13 09:42:00,
2013-01-13 08:53:00,13.0,11.0,30.04,NE,47,0.0,1.0,92,-99.99,,,-99.99,20.000000,,2013-01-13 16:53:00,
2013-01-13 09:03:00,14.0,11.0,30.08,NE,46,0.0,1.0,88,-99.99,,,-99.99,20.000000,,2013-01-13 17:03:00,
2013-01-13 09:12:00,14.0,11.0,30.08,NE,46,0.0,1.0,88,-99.99,,,-99.99,20.000000,,2013-01-13 17:12:00,
2013-01-13 09:22:00,14.0,11.0,30.08,NE,46,0.0,1.0,88,-99.99,,,-99.99,20.000000,,2013-01-13 17:22:00,
2013-01-13 09:32:00,16.0,12.0,30.08,ENE,66,0.0,1.0,84,-99.99,,,-99.99,30.000000,,2013-01-13 17:32:00,
2013-01-13 09:43:00,17.0,13.0,30.08,ENE,67,0.0,1.0,84,-99.99,,,-99.99,30.000000,,2013-01-13 17:43:00,
2013-01-13 09:53:00,18.0,14.0,30.08,East,79,0.0,1.0,83,-99.99,,,-99.99,30.000000,,2013-01-13 17:53:00,
2013-01-13 10:02:00,20.0,15.0,30.08,SE,126,0.0,1.0,81,-99.99,,,-99.99,30.000000,,2013-01-13 18:02:00,
2013-01-13 10:22:00,23.0,13.0,30.08,SE,137,1.0,2.0,64,-99.99,,,-99.99,30.000000,,2013-01-13 18:22:00,
2013-01-13 10:32:00,23.0,13.0,30.08,SE,137,1.0,2.0,64,-99.99,,,-99.99,30.000000,,2013-01-13 18:32:00,
2013-01-13 10:42:00,26.0,11.0,30.08,SE,144,0.0,2.0,51,-99.99,,,-99.99,40.000000,,2013-01-13 18:42:00,
2013-01-13 10:53:00,27.0,9.0,30.08,ESE,121,1.0,2.0,47,-99.99,,,-99.99,40.000000,,2013-01-13 18:53:00,
2013-01-13 11:02:00,27.0,11.0,30.08,South,175,1.0,2.0,50,-99.99,,,-99.99,40.000000,,2013-01-13 19:02:00,
2013-01-13 11:12:00,28.0,9.0,30.08,South,185,1.0,3.0,44,-99.99,,,-99.99,40.000000,,2013-01-13 19:12:00,
2013-01-13 11:22:00,28.0,8.0,30.08,SE,136,1.0,1.0,41,-99.99,,,-99.99,370.000000,,2013-01-13 19:22:00,
2013-01-13 11:32:00,29.0,9.0,30.04,West,279,1.0,2.0,41,-99.99,,,-99.99,370.000000,,2013-01-13 19:32:00,
2013-01-13 11:42:00,30.0,9.0,30.04,WNW,301,1.0,3.0,41,-99.99,,,-99.99,170.000000,,2013-01-13 19:42:00,
2013-01-13 11:52:00,29.0,9.0,30.04,NNE,24,1.0,2.0,41,-99.99,,,-99.99,110.000000,,2013-01-13 19:52:00,
2013-01-13 12:02:00,30.0,10.0,30.04,West,276,1.0,2.0,42,-99.99,,,-99.99,520.000000,,2013-01-13 20:02:00,
2013-01-13 12:12:00,31.0,10.0,30.04,West,270,1.0,3.0,42,-99.99,,,-99.99,690.000000,,2013-01-13 20:12:00,
2013-01-13 12:22:00,31.0,9.0,30.04,East,94,1.0,3.0,39,-99.99,,,-99.99,690.000000,,2013-01-13 20:22:00,
2013-01-13 12:32:00,30.0,7.0,30.04,NNW,335,1.0,3.0,37,-99.99,,,-99.99,700.000000,,2013-01-13 20:32:00,
2013-01-13 12:43:00,31.0,8.0,30.04,North,6,1.0,3.0,38,-99.99,,,-99.99,700.000000,,2013-01-13 20:43:00,
2013-01-13 12:52:00,30.0,7.0,30.01,NNW,337,1.0,3.0,36,-99.99,,,-99.99,690.000000,,2013-01-13 20:52:00,
2013-01-13 13:02:00,31.0,7.0,30.01,South,172,1.0,3.0,35,-99.99,,,-99.99,690.000000,,2013-01-13 21:02:00,
2013-01-13 13:12:00,31.0,7.0,30.01,NNW,345,1.0,3.0,36,-99.99,,,-99.99,680.000000,,2013-01-13 21:12:00,
2013-01-13 13:22:00,31.0,7.0,30.01,SE,143,1.0,3.0,35,-99.99,,,-99.99,670.000000,,2013-01-13 21:22:00,
2013-01-13 13:32:00,31.0,6.0,30.01,ESE,117,1.0,2.0,34,-99.99,,,-99.99,660.000000,,2013-01-13 21:32:00,
2013-01-13 13:42:00,31.0,5.0,30.01,South,174,1.0,4.0,33,-99.99,,,-99.99,650.000000,,2013-01-13 21:42:00,
2013-01-13 13:52:00,31.0,6.0,30.01,SW,215,1.0,3.0,34,-99.99,,,-99.99,630.000000,,2013-01-13 21:52:00,
2013-01-13 14:02:00,31.0,6.0,30.01,SW,215,1.0,3.0,34,-99.99,,,-99.99,630.000000,,2013-01-13 22:02:00,
2013-01-13 14:12:00,32.0,8.0,30.01,SSE,162,1.0,2.0,36,-99.99,,,-99.99,620.000000,,2013-01-13 22:12:00,
2013-01-13 14:22:00,30.0,7.0,30.01,SE,145,1.0,3.0,37,-99.99,,,-99.99,250.000000,,2013-01-13 22:22:00,
2013-01-13 14:33:00,31.0,7.0,30.01,SW,215,1.0,2.0,36,-99.99,,,-99.99,260.000000,,2013-01-13 22:33:00,
2013-01-13 14:42:00,31.0,7.0,30.01,SW,215,1.0,2.0,36,-99.99,,,-99.99,260.000000,,2013-01-13 22:42:00,
2013-01-13 14:52:00,30.0,8.0,30.01,South,179,1.0,2.0,39,-99.99,,,-99.99,80.000000,,2013-01-13 22:52:00,
2013-01-13 15:02:00,30.0,8.0,30.01,NNE,15,1.0,2.0,39,-99.99,,,-99.99,80.000000,,2013-01-13 23:02:00,
2013-01-13 15:12:00,30.0,8.0,30.01,NNE,15,1.0,2.0,39,-99.99,,,-99.99,80.000000,,2013-01-13 23:12:00,
2013-01-13 15:22:00,30.0,6.0,30.01,SE,141,1.0,3.0,35,-99.99,,,-99.99,80.000000,,2013-01-13 23:22:00,
2013-01-13 15:32:00,30.0,3.0,30.01,SSE,161,1.0,3.0,31,-99.99,,,-99.99,90.000000,,2013-01-13 23:32:00,
2013-01-13 15:42:00,29.0,6.0,30.01,SSE,166,1.0,2.0,36,-99.99,,,-99.99,80.000000,,2013-01-13 23:42:00,
2013-01-13 15:52:00,30.0,6.0,30.01,SSW,195,1.0,1.0,36,-99.99,,,-99.99,110.000000,,2013-01-13 23:52:00,
2013-01-13 16:02:00,30.0,8.0,30.01,SE,125,0.0,1.0,39,-99.99,,,-99.99,80.000000,,2013-01-14 00:02:00,
2013-01-13 16:12:00,29.0,9.0,30.01,North,352,1.0,2.0,42,-99.99,,,-99.99,60.000000,,2013-01-14 00:12:00,
2013-01-13 16:22:00,29.0,10.0,30.01,North,8,1.0,1.0,44,-99.99,,,-99.99,50.000000,,2013-01-14 00:22:00,
2013-01-13 16:32:00,29.0,10.0,30.01,North,8,1.0,1.0,44,-99.99,,,-99.99,50.000000,,2013-01-14 00:32:00,
2013-01-13 16:42:00,29.0,11.0,30.01,NE,46,0.0,1.0,46,-99.99,,,-99.99,30.000000,,2013-01-14 00:42:00,
2013-01-13 16:52:00,29.0,12.0,30.01,NE,37,0.0,1.0,50,-99.99,,,-99.99,20.000000,,2013-01-14 00:52:00,
2013-01-13 17:02:00,28.0,11.0,30.01,SE,135,0.0,1.0,47,-99.99,,,-99.99,20.000000,,2013-01-14 01:02:00,
2013-01-13 17:12:00,28.0,13.0,30.01,NNE,32,0.0,1.0,52,-99.99,,,-99.99,10.000000,,2013-01-14 01:12:00,
2013-01-13 17:22:00,28.0,12.0,30.01,SE,141,0.0,1.0,50,-99.99,,,-99.99,0.000000,,2013-01-14 01:22:00,
2013-01-13 17:32:00,28.0,12.0,30.01,SE,141,0.0,1.0,50,-99.99,,,-99.99,0.000000,,2013-01-14 01:32:00,
2013-01-13 17:42:00,27.0,14.0,30.01,NNE,28,0.0,0.0,58,-99.99,,,-99.99,0.000000,,2013-01-14 01:42:00,
2013-01-13 17:52:00,27.0,14.0,30.01,NNE,28,0.0,0.0,58,-99.99,,,-99.99,0.000000,,2013-01-14 01:52:00,
2013-01-13 18:02:00,27.0,15.0,30.01,ENE,58,0.0,1.0,60,-99.99,,,-99.99,0.000000,,2013-01-14 02:02:00,
2013-01-13 18:12:00,27.0,15.0,30.01,ENE,58,0.0,1.0,60,-99.99,,,-99.99,0.000000,,2013-01-14 02:12:00,
2013-01-13 18:22:00,26.0,15.0,30.01,NE,46,0.0,1.0,63,-99.99,,,-99.99,0.000000,,2013-01-14 02:22:00,
2013-01-13 18:30:00,24.0,15.0,30.01,NE,37,0.0,1.0,67,-99.99,,,-99.99,0.000000,,2013-01-14 02:30:00,
2013-01-13 18:32:00,26.0,15.0,30.01,NE,46,0.0,1.0,63,-99.99,,,-99.99,0.000000,,2013-01-14 02:32:00,
2013-01-13 18:42:00,25.0,15.0,30.01,ENE,57,0.0,1.0,66,-99.99,,,-99.99,0.000000,,2013-01-14 02:42:00,
2013-01-13 18:53:00,25.0,15.0,30.01,ENE,57,0.0,1.0,66,-99.99,,,-99.99,0.000000,,2013-01-14 02:53:00,
2013-01-13 19:02:00,25.0,15.0,30.01,NE,54,0.0,1.0,66,-99.99,,,-99.99,0.000000,,2013-01-14 03:02:00,
2013-01-13 19:12:00,24.0,15.0,30.01,NE,37,0.0,1.0,67,-99.99,,,-99.99,0.000000,,2013-01-14 03:12:00,
2013-01-13 19:22:00,24.0,15.0,30.01,NE,37,0.0,1.0,67,-99.99,,,-99.99,0.000000,,2013-01-14 03:22:00,
2013-01-13 20:22:00,21.0,14.0,30.01,ENE,74,0.0,0.0,73,-99.99,,,-99.99,0.000000,,2013-01-14 04:22:00,
2013-01-13 20:32:00,21.0,14.0,30.01,NE,54,0.0,0.0,72,-99.99,,,-99.99,0.000000,,2013-01-14 04:32:00,
2013-01-13 20:42:00,21.0,14.0,30.01,NE,54,0.0,0.0,72,-99.99,,,-99.99,0.000000,,2013-01-14 04:42:00,
2013-01-13 20:52:00,21.0,14.0,30.01,NNE,12,0.0,1.0,74,-99.99,,,-99.99,0.000000,,2013-01-14 04:52:00,
2013-01-13 21:03:00,21.0,14.0,30.04,NE,45,0.0,0.0,74,-99.99,,,-99.99,0.000000,,2013-01-14 05:03:00,
2013-01-13 21:12:00,20.0,14.0,30.04,NE,48,0.0,1.0,76,-99.99,,,-99.99,0.000000,,2013-01-14 05:12:00,
2013-01-13 21:22:00,20.0,14.0,30.04,NNE,33,0.0,0.0,78,-99.99,,,-99.99,0.000000,,2013-01-14 05:22:00,
2013-01-13 21:32:00,19.0,14.0,30.04,NE,48,0.0,0.0,79,-99.99,,,-99.99,0.000000,,2013-01-14 05:32:00,
2013-01-13 21:42:00,19.0,14.0,30.04,NE,48,0.0,0.0,79,-99.99,,,-99.99,0.000000,,2013-01-14 05:42:00,
2013-01-13 21:52:00,19.0,14.0,30.04,NE,53,0.0,0.0,80,-99.99,,,-99.99,0.000000,,2013-01-14 05:52:00,
2013-01-13 22:02:00,18.0,14.0,30.04,NE,54,0.0,0.0,81,-99.99,,,-99.99,0.000000,,2013-01-14 06:02:00,
2013-01-13 22:12:00,18.0,14.0,30.04,NE,54,0.0,0.0,81,-99.99,,,-99.99,0.000000,,2013-01-14 06:12:00,
2013-01-13 22:22:00,18.0,13.0,30.04,NE,53,0.0,0.0,82,-99.99,,,-99.99,0.000000,,2013-01-14 06:22:00,
2013-01-13 22:32:00,17.0,13.0,30.04,North,4,0.0,0.0,84,-99.99,,,-99.99,0.000000,,2013-01-14 06:32:00,
2013-01-13 22:42:00,17.0,13.0,30.04,North,353,0.0,0.0,85,-99.99,,,-99.99,0.000000,,2013-01-14 06:42:00,
2013-01-13 22:52:00,17.0,13.0,30.04,NNW,348,0.0,0.0,85,-99.99,,,-99.99,0.000000,,2013-01-14 06:52:00,
2013-01-13 23:02:00,17.0,13.0,30.04,NNW,346,0.0,0.0,84,-99.99,,,-99.99,0.000000,,2013-01-14 07:02:00,
2013-01-13 23:12:00,17.0,13.0,30.04,North,353,0.0,0.0,84,-99.99,,,-99.99,0.000000,,2013-01-14 07:12:00,
2013-01-13 23:22:00,17.0,13.0,30.04,North,353,0.0,0.0,84,-99.99,,,-99.99,0.000000,,2013-01-14 07:22:00,
2013-01-13 23:32:00,16.0,12.0,30.04,NW,317,0.0,1.0,84,-99.99,,,-99.99,0.000000,,2013-01-14 07:32:00,
2013-01-13 23:40:00,16.0,12.0,30.04,NNE,31,0.0,1.0,84,-99.99,,,-99.99,0.000000,,2013-01-14 07:40:00,
2013-01-13 23:42:00,16.0,12.0,30.04,NW,317,0.0,1.0,84,-99.99,,,-99.99,0.000000,,2013-01-14 07:42:00,
2013-01-13 23:52:00,16.0,12.0,30.04,NW,314,0.0,1.0,84,-99.99,,,-99.99,0.000000,,2013-01-14 07:52:00,